Albion, Oklahoma
Current Conditions -  °F | °C
As of 3:15 AM on Thursday 18 Dec 2014 (Local Time) from KRKR Reporting Station
Overcast Overcast  
Wind Chill:   Ceiling: 1900
Heat Index:   Visibility: 7mi
Dew Point:   Wind: 5mph
Humidity: 92%   Direction: 360°N
Pressure: 30.18"   Gusts: NA
Location:  34.66°N, 95.1°W
Report Text: KRKR 180915Z AUTO 36004KT 7SM OVC019 03/02 A3018 RMK AO2 T00270015
Loading
Personal Weather Stations






























Interactive Weather Map New forecast layout! Learn more

10-Day Weather Forecast

Advertisements
Track Severe Weather on mobile